createdAt,value
2022-08-02T00:02:42.453Z,25.41
2022-08-02T00:07:39.090Z,25.39
2022-08-02T00:12:27.625Z,25.39
2022-08-02T00:17:20.211Z,25.37
2022-08-02T00:22:13.107Z,25.38
2022-08-02T00:27:09.299Z,25.33
2022-08-02T00:31:57.666Z,25.33
2022-08-02T00:36:50.037Z,25.33
2022-08-02T00:41:42.840Z,25.3
2022-08-02T00:46:35.580Z,25.29
2022-08-02T00:51:28.367Z,25.28
2022-08-02T00:56:20.622Z,25.27
2022-08-02T01:01:13.417Z,25.26
2022-08-02T01:06:13.087Z,25.26
2022-08-02T01:10:58.659Z,25.25
2022-08-02T01:15:51.303Z,25.24
2022-08-02T01:20:43.846Z,25.24
2022-08-02T01:25:36.324Z,25.24
2022-08-02T01:30:28.746Z,25.21
2022-08-02T01:35:21.534Z,25.19
2022-08-02T01:40:14.013Z,25.18
2022-08-02T01:45:06.689Z,25.18
2022-08-02T01:49:59.211Z,25.17
2022-08-02T01:54:51.948Z,25.15
2022-08-02T01:59:44.354Z,25.16
2022-08-02T02:04:36.883Z,25.15
2022-08-02T02:09:29.391Z,25.13
2022-08-02T02:14:22.207Z,25.12
2022-08-02T02:19:14.597Z,25.11
2022-08-02T02:24:07.197Z,25.12
2022-08-02T02:28:59.769Z,25.1
2022-08-02T02:33:52.431Z,25.09
2022-08-02T02:38:44.960Z,25.08
2022-08-02T02:43:37.564Z,25.09
2022-08-02T02:48:30.029Z,25.05
2022-08-02T02:53:22.440Z,25.05
2022-08-02T02:58:15.279Z,25.05
2022-08-02T03:03:07.633Z,25.02
2022-08-02T03:08:00.113Z,25.03
2022-08-02T03:12:52.676Z,25.02
2022-08-02T03:17:45.115Z,24.99
2022-08-02T03:22:37.818Z,25
2022-08-02T03:27:30.564Z,24.95
2022-08-02T03:37:15.623Z,24.94
2022-08-02T03:42:08.690Z,24.94
2022-08-02T03:47:01.060Z,24.94
2022-08-02T03:51:53.554Z,24.89
2022-08-02T03:56:46.016Z,24.88
2022-08-02T04:01:38.699Z,24.89
2022-08-02T04:06:31.497Z,24.89
2022-08-02T04:11:23.969Z,24.67
2022-08-02T04:16:15.882Z,24.56
2022-08-02T04:21:07.916Z,24.11
2022-08-02T04:26:00.310Z,24.13
2022-08-02T04:30:52.589Z,24.04
2022-08-02T04:35:44.967Z,23.95
2022-08-02T04:40:37.647Z,23.78
2022-08-02T04:45:30.174Z,23.37
2022-08-02T04:50:22.728Z,23.61
2022-08-02T04:55:15.136Z,23.45
2022-08-02T05:00:08.244Z,23.5
2022-08-02T05:05:00.662Z,23.48
2022-08-02T05:09:53.225Z,23.22
2022-08-02T05:14:45.787Z,23.26
2022-08-02T05:19:38.595Z,23
2022-08-02T05:24:31.145Z,23.15
2022-08-02T05:29:24.201Z,23.24
2022-08-02T05:34:16.189Z,22.77
2022-08-02T05:39:10.780Z,23.2
2022-08-02T05:44:01.688Z,23.14
2022-08-02T05:48:54.303Z,22.79
2022-08-02T05:53:47.507Z,23.05
2022-08-02T05:58:39.524Z,23.28
2022-08-02T06:03:32.119Z,23.56
2022-08-02T06:08:24.743Z,23.7
2022-08-02T06:13:17.459Z,23.74
2022-08-02T06:18:09.909Z,23.78
2022-08-02T06:23:02.438Z,23.82
2022-08-02T06:27:55.303Z,23.86
2022-08-02T06:32:47.768Z,23.87
2022-08-02T06:37:40.293Z,23.88
2022-08-02T06:42:32.981Z,23.9
2022-08-02T06:47:25.569Z,23.91
2022-08-02T06:52:19.152Z,23.91
2022-08-02T06:57:10.665Z,23.92
2022-08-02T07:02:03.615Z,23.94
2022-08-02T07:06:56.499Z,23.97
2022-08-02T07:11:49.354Z,23.97
2022-08-02T07:16:42.022Z,23.95
2022-08-02T07:21:56.224Z,23.97
2022-08-02T07:26:27.080Z,23.98
2022-08-02T07:31:19.619Z,23.99
2022-08-02T07:36:16.807Z,24.02
2022-08-02T07:41:04.988Z,24.04
2022-08-02T07:46:00.908Z,24.05
2022-08-02T07:50:50.739Z,24.05
2022-08-02T07:55:43.440Z,24.05
2022-08-02T08:00:36.424Z,24.03
2022-08-02T08:05:29.378Z,24.03
2022-08-02T08:10:21.883Z,24.02
2022-08-02T08:15:14.343Z,24.04
2022-08-02T08:20:07.171Z,24.06
2022-08-02T08:24:59.843Z,24.07
2022-08-02T08:29:52.545Z,24.15
2022-08-02T08:34:45.230Z,24.21
2022-08-02T08:39:37.735Z,24.2
2022-08-02T08:44:30.167Z,24.23
2022-08-02T08:49:22.963Z,24.29
2022-08-02T08:54:15.442Z,24.33
2022-08-02T08:59:08.405Z,24.38
2022-08-02T09:04:00.924Z,24.38
2022-08-02T09:08:53.539Z,24.39
2022-08-02T09:13:46.284Z,24.48
2022-08-02T09:18:38.332Z,24.52
2022-08-02T09:23:31.063Z,24.6
2022-08-02T09:28:23.765Z,24.67
2022-08-02T09:33:16.455Z,24.71
2022-08-02T09:38:08.983Z,24.76
2022-08-02T09:43:01.689Z,24.8
2022-08-02T09:47:54.183Z,24.83
2022-08-02T09:52:47.140Z,24.89
2022-08-02T09:57:39.537Z,24.94
2022-08-02T10:02:32.251Z,24.97
2022-08-02T10:07:24.736Z,25.02
2022-08-02T10:12:17.268Z,25.06
2022-08-02T10:17:09.745Z,25.11
2022-08-02T10:22:02.291Z,25.14
2022-08-02T10:26:54.866Z,25.2
2022-08-02T10:31:47.611Z,25.21
2022-08-02T10:41:33.288Z,25.31
2022-08-02T10:51:18.206Z,25.39
2022-08-02T11:01:03.529Z,25.46
2022-08-02T11:05:56.125Z,25.51
2022-08-02T11:10:48.813Z,25.54
2022-08-02T11:15:41.523Z,25.57
2022-08-02T11:20:34.024Z,25.63
2022-08-02T11:25:28.029Z,25.67
2022-08-02T11:30:19.492Z,25.71
2022-08-02T11:35:12.162Z,25.74
2022-08-02T11:40:05.789Z,25.75
2022-08-02T11:44:57.511Z,25.78
2022-08-02T11:49:50.269Z,25.8
2022-08-02T11:54:42.781Z,25.81
2022-08-02T11:59:35.784Z,25.85
2022-08-02T12:04:28.879Z,25.88
2022-08-02T12:09:21.551Z,25.9
2022-08-02T12:14:14.471Z,25.92
2022-08-02T12:19:07.445Z,25.95
2022-08-02T12:24:01.297Z,25.99
2022-08-02T12:28:52.628Z,26.01
2022-08-02T12:33:45.067Z,26.03
2022-08-02T12:38:37.953Z,26.03
2022-08-02T12:43:30.608Z,26.07
2022-08-02T12:48:23.322Z,26.1
2022-08-02T12:53:15.931Z,26.11
2022-08-02T12:58:08.746Z,26.14
2022-08-02T13:03:01.606Z,26.15
2022-08-02T13:07:54.304Z,26.21
2022-08-02T13:12:46.827Z,26.28
2022-08-02T13:17:39.324Z,26.26
2022-08-02T13:22:31.941Z,26.29
2022-08-02T13:27:24.653Z,26.28
2022-08-02T13:32:17.574Z,26.33
2022-08-02T13:37:09.853Z,26.35
2022-08-02T13:42:02.397Z,26.36
2022-08-02T13:46:54.760Z,26.39
2022-08-02T13:51:47.318Z,26.41
2022-08-02T13:56:39.989Z,26.42
2022-08-02T14:01:32.706Z,26.46
2022-08-02T14:06:25.398Z,26.49
2022-08-02T14:11:18.026Z,26.52
2022-08-02T14:16:10.437Z,26.57
2022-08-02T14:21:03.110Z,26.58
2022-08-02T14:25:55.936Z,26.61
2022-08-02T14:30:48.428Z,26.63
2022-08-02T14:35:41.294Z,26.67
2022-08-02T14:40:33.926Z,26.69
2022-08-02T14:45:26.721Z,26.74
2022-08-02T14:50:19.145Z,26.75
2022-08-02T14:55:15.447Z,26.77
2022-08-02T15:00:04.646Z,26.8
2022-08-02T15:04:57.405Z,26.84
2022-08-02T15:09:50.003Z,26.87
2022-08-02T15:14:42.454Z,26.9
2022-08-02T15:19:57.204Z,26.92
2022-08-02T15:24:27.724Z,26.97
2022-08-02T15:29:20.240Z,26.97
2022-08-02T15:34:13.031Z,27.02
2022-08-02T15:39:05.821Z,27.02
2022-08-02T15:43:59.973Z,27.03
2022-08-02T15:48:51.224Z,27.07
2022-08-02T15:53:43.755Z,27.08
2022-08-02T15:58:44.366Z,27.11
2022-08-02T16:03:29.105Z,27.1
2022-08-02T16:08:21.703Z,27.13
2022-08-02T16:13:14.463Z,27.14
2022-08-02T16:18:07.012Z,27.18
2022-08-02T16:22:59.655Z,27.19
2022-08-02T16:27:57.515Z,27.2
2022-08-02T16:32:45.247Z,27.21
2022-08-02T16:37:50.641Z,27.21
2022-08-02T16:42:31.184Z,27.23
2022-08-02T16:47:37.213Z,27.22
2022-08-02T16:52:16.292Z,27.25
2022-08-02T16:57:08.890Z,27.26
2022-08-02T17:02:02.243Z,27.25
2022-08-02T17:06:53.986Z,27.25
2022-08-02T17:16:39.974Z,27.28
2022-08-02T17:26:25.610Z,27.28
2022-08-02T17:31:18.580Z,27.32
2022-08-02T17:36:11.581Z,27.31
2022-08-02T17:41:04.395Z,27.33
2022-08-02T17:45:59.683Z,27.32
2022-08-02T17:50:49.451Z,27.34
2022-08-02T17:55:42.649Z,27.33
2022-08-02T18:00:34.723Z,27.35
2022-08-02T18:05:35.456Z,27.32
2022-08-02T18:10:20.016Z,27.33
2022-08-02T18:15:14.160Z,27.3
2022-08-02T18:20:10.297Z,27.28
2022-08-02T18:24:57.782Z,27.24
2022-08-02T18:29:59.995Z,27.2
2022-08-02T18:34:44.343Z,27.21
2022-08-02T18:39:38.350Z,27.15
2022-08-02T18:44:28.046Z,27.17
2022-08-02T18:49:20.758Z,27.09
2022-08-02T18:54:13.019Z,27.04
2022-08-02T18:59:05.659Z,26.96
2022-08-02T19:03:58.112Z,26.96
2022-08-02T19:09:05.111Z,26.9
2022-08-02T19:13:43.677Z,26.93
2022-08-02T19:18:35.962Z,26.69
2022-08-02T19:23:28.490Z,26.75
2022-08-02T19:28:25.963Z,26.89
2022-08-02T19:33:25.149Z,26.96
2022-08-02T19:38:07.618Z,26.96
2022-08-02T19:44:22.539Z,26.95
2022-08-02T19:47:54.421Z,26.96
2022-08-02T19:52:45.233Z,26.92
2022-08-02T19:57:37.710Z,26.89
2022-08-02T20:02:30.136Z,26.88
2022-08-02T20:07:48.239Z,26.88
2022-08-02T20:12:15.859Z,26.91
2022-08-02T20:17:08.128Z,26.89
2022-08-02T20:22:00.880Z,26.87
2022-08-02T20:26:53.389Z,26.84
2022-08-02T20:31:45.920Z,26.83
2022-08-02T20:36:38.332Z,26.76
2022-08-02T20:41:36.647Z,26.76
2022-08-02T20:46:23.518Z,26.7
2022-08-02T20:51:16.105Z,26.66
2022-08-02T20:56:08.727Z,26.7
2022-08-02T21:01:01.462Z,26.67
2022-08-02T21:05:56.065Z,26.65
2022-08-02T21:10:50.759Z,26.61
2022-08-02T21:15:39.059Z,26.6
2022-08-02T21:20:31.742Z,26.57
2022-08-02T21:25:24.276Z,26.53
2022-08-02T21:30:17.331Z,26.5
2022-08-02T21:35:09.632Z,26.43
2022-08-02T21:40:02.245Z,26.44
2022-08-02T21:44:54.700Z,26.41
2022-08-02T21:50:09.973Z,26.4
2022-08-02T21:54:41.030Z,26.39
2022-08-02T21:59:32.657Z,26.37
2022-08-02T22:04:25.693Z,26.38
2022-08-02T22:09:42.588Z,26.31
2022-08-02T22:14:12.043Z,26.27
2022-08-02T22:19:04.629Z,26.27
2022-08-02T22:23:57.251Z,26.24
2022-08-02T22:28:50.371Z,26.25
2022-08-02T22:33:46.835Z,26.21
2022-08-02T22:38:35.054Z,26.24
2022-08-02T22:43:27.608Z,26.17
2022-08-02T22:53:07.675Z,26.06
2022-08-02T22:58:01.452Z,26.1
2022-08-02T23:05:27.294Z,26.11
2022-08-02T23:13:26.673Z,26.11
2022-08-02T23:18:05.959Z,26.05
2022-08-02T23:22:57.410Z,26
2022-08-02T23:27:49.880Z,25.95
2022-08-02T23:43:14.594Z,25.96
2022-08-02T23:51:16.332Z,25.94
2022-08-02T23:55:57.246Z,25.94
